Time;durP1;ratioP1;P1;durP2;ratioP2;P2;SDS_P1;SDS_P2;PMS_P1;PMS_P2;Temp;Humidity;BMP_temperature;BMP_pressure;BME280_temperature;BME280_humidity;BME280_pressure;Samples;Min_cycle;Max_cycle;Signal;HPM_P1;HPM_P2
2022/04/08 00:01:17;;;;;;;;;14.25;9.00;;;;;;;;5055639;28;46532;-78
2022/04/08 00:03:43;;;;;;;;;3.00;2.67;;;;;;;;5055705;28;45346;-75
2022/04/08 00:06:08;;;;;;;;;1.00;1.00;;;;;;;;5054607;28;45235;-78
2022/04/08 00:08:34;;;;;;;;;2.67;2.00;;;;;;;;5054953;28;45654;-79
2022/04/08 00:11:00;;;;;;;;;2.67;2.67;;;;;;;;5055880;28;46156;-77
2022/04/08 00:13:25;;;;;;;;;6.67;6.33;;;;;;;;5054344;28;45441;-79
2022/04/08 00:15:50;;;;;;;;;5.33;5.00;;;;;;;;5054635;28;45544;-80
2022/04/08 00:18:16;;;;;;;;;8.00;8.00;;;;;;;;5054670;28;45490;-79
2022/04/08 00:20:42;;;;;;;;;3.00;3.00;;;;;;;;5054365;28;47038;-79
2022/04/08 00:23:07;;;;;;;;;5.50;4.25;;;;;;;;5054473;28;45436;-78
2022/04/08 00:25:33;;;;;;;;;6.25;5.75;;;;;;;;5054415;28;45369;-79
2022/04/08 00:27:58;;;;;;;;;9.75;9.75;;;;;;;;5054499;28;45632;-78
2022/04/08 00:30:23;;;;;;;;;13.00;12.25;;;;;;;;5054492;28;45507;-79
2022/04/08 00:32:51;;;;;;;;;7.25;6.50;;;;;;;;5054381;28;45473;-79
2022/04/08 00:35:16;;;;;;;;;6.50;6.00;;;;;;;;5056089;28;45485;-75
2022/04/08 00:37:42;;;;;;;;;6.00;5.00;;;;;;;;5056179;28;45485;-75
2022/04/08 00:40:07;;;;;;;;;2.00;1.33;;;;;;;;5055773;28;45658;-79
2022/04/08 00:42:33;;;;;;;;;2.00;1.00;;;;;;;;5055746;28;45571;-75
2022/04/08 00:44:58;;;;;;;;;2.00;1.00;;;;;;;;5055535;28;45438;-75
2022/04/08 00:47:24;;;;;;;;;2.00;1.00;;;;;;;;5057393;28;45615;-75
2022/04/08 00:49:51;;;;;;;;;1.00;1.00;;;;;;;;5055706;28;45393;-75
2022/04/08 00:52:17;;;;;;;;;1.00;1.00;;;;;;;;5057236;28;45498;-75
2022/04/08 00:54:44;;;;;;;;;0.00;0.00;;;;;;;;5056034;28;45571;-75
2022/04/08 00:57:10;;;;;;;;;2.00;2.00;;;;;;;;5055813;28;45599;-79
2022/04/08 00:59:35;;;;;;;;;1.00;1.00;;;;;;;;5056371;28;46378;-75
2022/04/08 01:02:01;;;;;;;;;0.67;0.00;;;;;;;;5056875;28;45568;-75
2022/04/08 01:04:29;;;;;;;;;1.67;1.00;;;;;;;;5056140;28;45264;-76
2022/04/08 01:06:57;;;;;;;;;5.00;5.00;;;;;;;;5056125;28;45366;-80
2022/04/08 01:09:23;;;;;;;;;4.50;4.50;;;;;;;;5055269;28;46430;-79
2022/04/08 01:11:48;;;;;;;;;9.00;6.25;;;;;;;;5056812;28;45794;-75
2022/04/08 01:14:14;;;;;;;;;7.25;5.25;;;;;;;;5055490;28;45316;-80
2022/04/08 01:16:41;;;;;;;;;4.67;3.67;;;;;;;;5054192;28;45481;-79
2022/04/08 01:19:06;;;;;;;;;6.00;6.00;;;;;;;;5054498;28;47170;-78
2022/04/08 01:21:38;;;;;;;;;11.75;11.25;;;;;;;;5054734;28;45316;-79
2022/04/08 01:24:04;;;;;;;;;12.25;12.25;;;;;;;;5056996;28;45482;-78
2022/04/08 01:26:29;;;;;;;;;13.75;13.75;;;;;;;;5057516;28;45971;-75
2022/04/08 01:28:55;;;;;;;;;12.50;12.00;;;;;;;;5056969;28;45379;-78
2022/04/08 01:31:23;;;;;;;;;1.67;1.67;;;;;;;;5056779;28;45514;-79
2022/04/08 01:33:49;;;;;;;;;1.33;1.00;;;;;;;;5058445;28;45665;-79
2022/04/08 01:36:14;;;;;;;;;2.00;1.00;;;;;;;;5057225;28;45552;-78
2022/04/08 01:38:40;;;;;;;;;1.00;1.00;;;;;;;;5056445;28;47272;-79
2022/04/08 01:41:05;;;;;;;;;2.00;1.00;;;;;;;;5056791;28;45405;-79
2022/04/08 01:43:30;;;;;;;;;2.00;1.00;;;;;;;;5058405;28;45451;-78
2022/04/08 01:45:56;;;;;;;;;1.00;1.00;;;;;;;;5056771;28;45591;-78
2022/04/08 01:48:21;;;;;;;;;2.00;2.00;;;;;;;;5056744;28;45416;-79
2022/04/08 01:50:46;;;;;;;;;2.75;2.50;;;;;;;;5057990;28;45421;-77
2022/04/08 01:53:13;;;;;;;;;4.00;3.00;;;;;;;;5056573;28;45394;-75
2022/04/08 01:55:39;;;;;;;;;3.25;3.25;;;;;;;;5058135;28;45592;-79
2022/04/08 01:58:04;;;;;;;;;4.50;4.50;;;;;;;;5056297;28;46669;-75
2022/04/08 02:00:30;;;;;;;;;26.75;22.25;;;;;;;;5055904;28;45540;-75
2022/04/08 02:02:56;;;;;;;;;7.50;7.25;;;;;;;;5059122;28;45403;-79
2022/04/08 02:05:21;;;;;;;;;5.33;3.33;;;;;;;;5058572;28;45654;-80
2022/04/08 02:07:46;;;;;;;;;2.33;2.33;;;;;;;;5058147;28;46272;-75
2022/04/08 02:10:12;;;;;;;;;2.00;2.00;;;;;;;;5059636;28;45371;-80
2022/04/08 02:12:37;;;;;;;;;1.00;1.00;;;;;;;;5058090;28;45393;-76
2022/04/08 02:15:03;;;;;;;;;2.00;2.00;;;;;;;;5058123;28;45489;-75
2022/04/08 02:17:30;;;;;;;;;4.75;4.00;;;;;;;;5059256;28;45483;-80
2022/04/08 02:19:55;;;;;;;;;8.75;8.50;;;;;;;;5058414;28;45501;-75
2022/04/08 02:22:23;;;;;;;;;5.75;5.50;;;;;;;;5059528;28;45450;-76
2022/04/08 02:24:50;;;;;;;;;3.75;3.00;;;;;;;;5058455;28;45585;-74
2022/04/08 02:27:16;;;;;;;;;3.25;3.00;;;;;;;;5057860;28;46616;-80
2022/04/08 02:29:41;;;;;;;;;3.75;3.75;;;;;;;;5057662;28;45458;-75
2022/04/08 02:32:09;;;;;;;;;3.00;3.00;;;;;;;;5057894;28;45387;-75
2022/04/08 02:34:39;;;;;;;;;5.25;4.00;;;;;;;;5056699;28;45589;-75
2022/04/08 02:37:07;;;;;;;;;8.00;7.50;;;;;;;;5058912;28;45605;-74
2022/04/08 02:39:33;;;;;;;;;2.00;2.00;;;;;;;;5058999;28;45469;-75
2022/04/08 02:41:58;;;;;;;;;3.00;3.00;;;;;;;;5057831;28;45432;-75
2022/04/08 02:44:24;;;;;;;;;3.00;3.00;;;;;;;;5059311;28;45345;-75
2022/04/08 02:46:49;;;;;;;;;5.00;5.00;;;;;;;;5057097;28;47657;-75
2022/04/08 02:49:14;;;;;;;;;2.00;2.00;;;;;;;;5057274;28;45428;-74
2022/04/08 02:51:40;;;;;;;;;9.00;8.00;;;;;;;;5057429;28;45542;-75
2022/04/08 02:54:05;;;;;;;;;3.25;3.00;;;;;;;;5057613;28;45587;-78
2022/04/08 02:56:30;;;;;;;;;1.50;1.00;;;;;;;;5057690;28;47116;-75
2022/04/08 02:58:57;;;;;;;;;1.00;1.00;;;;;;;;5057292;28;45382;-76
2022/04/08 03:01:23;;;;;;;;;6.50;5.75;;;;;;;;5059099;28;45347;-75
2022/04/08 03:03:48;;;;;;;;;3.00;2.00;;;;;;;;5057425;28;45429;-80
2022/04/08 03:06:13;;;;;;;;;14.50;13.25;;;;;;;;5058704;28;46073;-80
2022/04/08 03:08:39;;;;;;;;;2.00;2.00;;;;;;;;5057265;28;45424;-75
2022/04/08 03:11:04;;;;;;;;;6.00;6.00;;;;;;;;5058669;28;45509;-75
2022/04/08 03:13:29;;;;;;;;;9.25;9.00;;;;;;;;5058773;28;45405;-75
2022/04/08 03:15:56;;;;;;;;;12.25;10.00;;;;;;;;5056996;28;46497;-75
2022/04/08 03:18:21;;;;;;;;;6.00;6.00;;;;;;;;5058474;28;45314;-75
2022/04/08 03:20:47;;;;;;;;;5.75;4.75;;;;;;;;5058388;28;45541;-79
2022/04/08 03:23:12;;;;;;;;;3.33;3.33;;;;;;;;5057000;28;45593;-75
2022/04/08 03:25:37;;;;;;;;;5.75;4.50;;;;;;;;5058266;28;45468;-74
2022/04/08 03:28:03;;;;;;;;;4.25;4.25;;;;;;;;5057327;28;45542;-75
2022/04/08 03:30:28;;;;;;;;;7.75;7.00;;;;;;;;5058334;28;45343;-75
2022/04/08 03:32:54;;;;;;;;;2.00;2.00;;;;;;;;5057285;28;45539;-74
2022/04/08 03:35:20;;;;;;;;;3.00;3.00;;;;;;;;5056667;28;46827;-74
2022/04/08 03:37:45;;;;;;;;;3.00;3.00;;;;;;;;5056585;28;45494;-76
2022/04/08 03:40:11;;;;;;;;;3.00;2.00;;;;;;;;5058226;28;45420;-75
2022/04/08 03:42:36;;;;;;;;;2.25;2.25;;;;;;;;5058349;28;45806;-75
2022/04/08 03:45:02;;;;;;;;;3.75;3.00;;;;;;;;5058389;28;46122;-75
2022/04/08 03:47:27;;;;;;;;;3.50;2.75;;;;;;;;5057745;28;45349;-75
2022/04/08 03:49:53;;;;;;;;;5.00;5.00;;;;;;;;5058090;28;46161;-80
2022/04/08 03:52:18;;;;;;;;;5.25;5.00;;;;;;;;5056768;28;45469;-74
2022/04/08 03:54:43;;;;;;;;;6.75;4.75;;;;;;;;5057724;28;46055;-75
2022/04/08 03:57:09;;;;;;;;;5.25;4.00;;;;;;;;5056261;28;45488;-75
2022/04/08 03:59:34;;;;;;;;;4.00;4.00;;;;;;;;5056640;28;45520;-74
2022/04/08 04:02:01;;;;;;;;;3.75;3.75;;;;;;;;5057977;28;45429;-75
2022/04/08 04:04:27;;;;;;;;;4.00;4.00;;;;;;;;5056167;28;46840;-75
2022/04/08 04:06:52;;;;;;;;;4.50;3.75;;;;;;;;5057724;28;45471;-80
2022/04/08 04:09:19;;;;;;;;;3.67;3.67;;;;;;;;5058006;28;45205;-75
2022/04/08 04:11:44;;;;;;;;;4.00;4.00;;;;;;;;5056615;28;45572;-75
2022/04/08 04:14:09;;;;;;;;;3.25;3.25;;;;;;;;5057521;28;46105;-75
2022/04/08 04:16:35;;;;;;;;;3.75;3.25;;;;;;;;5056322;28;45350;-75
2022/04/08 04:19:01;;;;;;;;;3.25;3.00;;;;;;;;5057316;28;45379;-74
2022/04/08 04:21:26;;;;;;;;;4.50;4.25;;;;;;;;5056656;28;45472;-79
2022/04/08 04:23:51;;;;;;;;;4.25;4.25;;;;;;;;5055706;28;46573;-77
2022/04/08 04:26:17;;;;;;;;;7.00;7.00;;;;;;;;5057181;28;45314;-79
2022/04/08 04:28:42;;;;;;;;;4.00;4.00;;;;;;;;5055981;28;45319;-79
2022/04/08 04:31:07;;;;;;;;;5.25;3.75;;;;;;;;5056242;28;45581;-76
2022/04/08 04:33:33;;;;;;;;;7.00;7.00;;;;;;;;5057562;28;45698;-78
2022/04/08 04:35:59;;;;;;;;;6.00;5.75;;;;;;;;5056097;28;45561;-75
2022/04/08 04:38:24;;;;;;;;;6.00;6.00;;;;;;;;5056403;28;45424;-75
2022/04/08 04:40:50;;;;;;;;;6.75;6.75;;;;;;;;5055996;28;45648;-74
2022/04/08 04:43:16;;;;;;;;;4.75;4.75;;;;;;;;5055479;28;46593;-79
2022/04/08 04:45:41;;;;;;;;;4.00;4.00;;;;;;;;5055812;28;45573;-75
2022/04/08 04:48:07;;;;;;;;;5.50;5.00;;;;;;;;5057694;28;45182;-75
2022/04/08 04:50:33;;;;;;;;;5.25;4.50;;;;;;;;5057444;28;45403;-80
2022/04/08 04:52:58;;;;;;;;;6.75;6.50;;;;;;;;5056785;28;45559;-75
2022/04/08 04:55:24;;;;;;;;;7.50;6.00;;;;;;;;5057256;28;45382;-75
2022/04/08 04:57:49;;;;;;;;;5.25;5.25;;;;;;;;5056222;28;45490;-74
2022/04/08 05:00:16;;;;;;;;;10.00;9.75;;;;;;;;5056996;28;45396;-74
2022/04/08 05:02:42;;;;;;;;;5.00;4.00;;;;;;;;5055596;28;48005;-75
2022/04/08 05:05:08;;;;;;;;;5.33;4.33;;;;;;;;5055653;28;45355;-75
2022/04/08 05:07:33;;;;;;;;;3.33;3.00;;;;;;;;5055606;28;45497;-74
2022/04/08 05:09:58;;;;;;;;;3.00;3.00;;;;;;;;5055641;28;45433;-74
2022/04/08 05:12:24;;;;;;;;;3.00;3.00;;;;;;;;5055075;28;46412;-75
2022/04/08 05:14:49;;;;;;;;;4.00;4.00;;;;;;;;5055432;28;45488;-74
2022/04/08 05:17:14;;;;;;;;;3.00;3.00;;;;;;;;5055751;28;45318;-79
2022/04/08 05:19:40;;;;;;;;;3.00;3.00;;;;;;;;5056672;28;45788;-74
2022/04/08 05:22:05;;;;;;;;;3.00;3.00;;;;;;;;5052552;28;47089;-79
2022/04/08 05:24:30;;;;;;;;;4.00;3.00;;;;;;;;5055049;28;45647;-79
2022/04/08 05:26:56;;;;;;;;;3.00;3.00;;;;;;;;5055158;28;45513;-78
2022/04/08 05:29:21;;;;;;;;;4.00;3.00;;;;;;;;5054952;28;45610;-79
2022/04/08 05:31:47;;;;;;;;;3.00;3.00;;;;;;;;5054723;28;46138;-77
2022/04/08 05:34:12;;;;;;;;;2.00;2.00;;;;;;;;5053447;28;45472;-77
2022/04/08 05:36:38;;;;;;;;;2.00;2.00;;;;;;;;5055171;28;45755;-78
2022/04/08 05:39:03;;;;;;;;;2.33;2.00;;;;;;;;5054666;28;45594;-77
2022/04/08 05:41:29;;;;;;;;;3.00;3.00;;;;;;;;5054565;28;46193;-74
2022/04/08 05:43:54;;;;;;;;;3.00;3.00;;;;;;;;5054256;28;45557;-75
2022/04/08 05:46:19;;;;;;;;;4.00;4.00;;;;;;;;5053526;28;45453;-74
2022/04/08 05:48:45;;;;;;;;;6.00;5.00;;;;;;;;5053612;28;45474;-74
2022/04/08 05:51:10;;;;;;;;;4.50;4.50;;;;;;;;5053522;28;46588;-79
2022/04/08 05:53:36;;;;;;;;;13.50;12.25;;;;;;;;5054694;28;45480;-74
2022/04/08 05:56:04;;;;;;;;;5.00;5.00;;;;;;;;5053174;28;45429;-76
2022/04/08 05:58:30;;;;;;;;;3.00;3.00;;;;;;;;5053220;28;46574;-74
2022/04/08 06:00:57;;;;;;;;;3.00;3.00;;;;;;;;5053003;28;45718;-77
2022/04/08 06:03:22;;;;;;;;;3.00;1.33;;;;;;;;5050312;28;45420;-78
2022/04/08 06:05:47;;;;;;;;;19.75;17.25;;;;;;;;5051222;28;45525;-74
2022/04/08 06:08:13;;;;;;;;;28.00;25.75;;;;;;;;5052912;28;45434;-74
2022/04/08 06:10:38;;;;;;;;;11.00;11.00;;;;;;;;5054686;28;47562;-74
2022/04/08 06:13:03;;;;;;;;;6.00;6.00;;;;;;;;5057309;28;45656;-74
2022/04/08 06:15:29;;;;;;;;;5.00;5.00;;;;;;;;5057580;28;45469;-75
2022/04/08 06:17:55;;;;;;;;;9.25;9.25;;;;;;;;5058323;28;45699;-74
2022/04/08 06:20:20;;;;;;;;;12.00;11.25;;;;;;;;5057972;28;47508;-74
2022/04/08 06:22:47;;;;;;;;;11.75;11.25;;;;;;;;5059111;28;45387;-74
2022/04/08 06:25:14;;;;;;;;;11.00;7.00;;;;;;;;5059581;28;45397;-75
2022/04/08 06:27:40;;;;;;;;;4.67;4.67;;;;;;;;5059658;28;45235;-78
2022/04/08 06:30:09;;;;;;;;;4.00;4.00;;;;;;;;5058948;28;45512;-75
2022/04/08 06:32:35;;;;;;;;;6.00;4.00;;;;;;;;5040460;28;45492;-74
2022/04/08 06:35:01;;;;;;;;;3.67;3.00;;;;;;;;5075659;27;45483;-74
2022/04/08 06:37:27;;;;;;;;;6.00;6.00;;;;;;;;5078497;27;45503;-73
2022/04/08 06:39:52;;;;;;;;;4.00;3.00;;;;;;;;5078079;27;45560;-74
2022/04/08 06:42:18;;;;;;;;;2.00;2.00;;;;;;;;5059779;27;45497;-73
2022/04/08 06:44:43;;;;;;;;;1.67;1.33;;;;;;;;5055698;28;45544;-75
2022/04/08 06:47:08;;;;;;;;;3.00;2.00;;;;;;;;5057793;28;45370;-73
2022/04/08 06:49:34;;;;;;;;;1.33;1.33;;;;;;;;5056907;28;45425;-81
2022/04/08 06:51:59;;;;;;;;;2.00;2.00;;;;;;;;5056355;28;45443;-77
2022/04/08 06:54:25;;;;;;;;;2.67;2.67;;;;;;;;5056603;28;45920;-73
2022/04/08 06:56:51;;;;;;;;;1.67;1.67;;;;;;;;5056366;28;45638;-73
2022/04/08 06:59:16;;;;;;;;;2.00;2.00;;;;;;;;5052780;28;45548;-73
2022/04/08 07:01:41;;;;;;;;;2.00;2.00;;;;;;;;5056179;28;45601;-74
2022/04/08 07:04:07;;;;;;;;;2.00;2.00;;;;;;;;5056134;28;45376;-75
2022/04/08 07:06:32;;;;;;;;;2.00;1.00;;;;;;;;5057898;28;45407;-78
2022/04/08 07:08:57;;;;;;;;;1.33;1.00;;;;;;;;5056873;28;45475;-79
2022/04/08 07:11:23;;;;;;;;;2.00;2.00;;;;;;;;5057154;28;45434;-82
2022/04/08 07:13:48;;;;;;;;;1.33;1.33;;;;;;;;5056284;28;45403;-78
2022/04/08 07:16:14;;;;;;;;;2.00;2.00;;;;;;;;5057336;28;45340;-77
2022/04/08 07:18:39;;;;;;;;;1.33;1.33;;;;;;;;5056258;28;45579;-81
2022/04/08 07:21:05;;;;;;;;;2.00;2.00;;;;;;;;5056374;28;45361;-76
2022/04/08 07:23:32;;;;;;;;;2.33;2.33;;;;;;;;5056089;28;45723;-80
2022/04/08 07:25:57;;;;;;;;;1.00;1.00;;;;;;;;5056217;28;45685;-78
2022/04/08 07:28:23;;;;;;;;;2.00;2.00;;;;;;;;5057166;28;46206;-79
2022/04/08 07:30:49;;;;;;;;;1.00;0.67;;;;;;;;5057167;28;45474;-77
2022/04/08 07:33:15;;;;;;;;;1.00;1.00;;;;;;;;5056909;28;45524;-76
2022/04/08 07:35:41;;;;;;;;;2.00;2.00;;;;;;;;5056525;28;45949;-79
2022/04/08 07:38:06;;;;;;;;;2.33;2.00;;;;;;;;5056405;28;46230;-79
2022/04/08 07:40:32;;;;;;;;;1.00;1.00;;;;;;;;5055419;28;45437;-81
2022/04/08 07:42:57;;;;;;;;;2.00;1.00;;;;;;;;5055065;28;45374;-74
2022/04/08 07:45:27;;;;;;;;;1.00;1.00;;;;;;;;5055403;28;45391;-81
2022/04/08 07:47:54;;;;;;;;;1.00;1.00;;;;;;;;5052578;28;45821;-80
2022/04/08 07:50:19;;;;;;;;;1.00;1.00;;;;;;;;5054884;28;45517;-75
2022/04/08 07:52:45;;;;;;;;;0.33;0.33;;;;;;;;5056355;28;45829;-73
2022/04/08 07:55:11;;;;;;;;;2.00;1.00;;;;;;;;5059454;28;45440;-72
2022/04/08 07:57:46;;;;;;;;;2.00;1.00;;;;;;;;5056077;28;45447;-72
2022/04/08 08:00:14;;;;;;;;;1.00;1.00;;;;;;;;5054077;28;45334;-73
2022/04/08 08:02:39;;;;;;;;;1.00;1.00;;;;;;;;5055946;28;45505;-75
2022/04/08 08:05:05;;;;;;;;;1.00;1.00;;;;;;;;5056254;28;45242;-74
2022/04/08 08:07:51;;;;;;;;;1.33;1.33;;;;;;;;5055919;28;46415;-74
2022/04/08 08:10:17;;;;;;;;;2.00;2.00;;;;;;;;5053227;28;45768;-74
2022/04/08 08:12:43;;;;;;;;;1.00;1.00;;;;;;;;5055920;28;45500;-74
2022/04/08 08:15:09;;;;;;;;;3.00;2.00;;;;;;;;5055883;28;45448;-74
2022/04/08 08:17:34;;;;;;;;;1.00;1.00;;;;;;;;5053849;28;47455;-74
2022/04/08 08:19:59;;;;;;;;;1.00;1.00;;;;;;;;5054028;28;45740;-74
2022/04/08 08:22:25;;;;;;;;;1.67;1.67;;;;;;;;5054622;28;45370;-74
2022/04/08 08:24:51;;;;;;;;;1.33;1.00;;;;;;;;5056341;28;45464;-74
2022/04/08 08:27:16;;;;;;;;;1.67;1.67;;;;;;;;5054207;28;47838;-74
2022/04/08 08:29:42;;;;;;;;;1.00;1.00;;;;;;;;5053882;28;45409;-74
2022/04/08 08:32:07;;;;;;;;;2.00;1.00;;;;;;;;5053556;28;45361;-73
2022/04/08 08:34:32;;;;;;;;;2.00;2.00;;;;;;;;5053954;28;45571;-74
2022/04/08 08:36:59;;;;;;;;;1.00;1.00;;;;;;;;5055670;28;45565;-74
2022/04/08 08:39:25;;;;;;;;;4.00;4.00;;;;;;;;5054941;28;45428;-74
2022/04/08 08:41:52;;;;;;;;;10.00;9.00;;;;;;;;5056554;28;45256;-73
2022/04/08 08:44:19;;;;;;;;;8.00;7.00;;;;;;;;5055180;28;45615;-73
2022/04/08 08:46:45;;;;;;;;;3.33;3.00;;;;;;;;5056410;28;45457;-73
2022/04/08 08:49:14;;;;;;;;;5.00;4.00;;;;;;;;5055625;28;45415;-74
2022/04/08 08:51:41;;;;;;;;;3.00;2.33;;;;;;;;5051865;28;45394;-73
2022/04/08 08:54:07;;;;;;;;;3.00;2.00;;;;;;;;5055675;28;45578;-74
2022/04/08 08:56:33;;;;;;;;;2.67;2.33;;;;;;;;5055255;28;45714;-73
2022/04/08 08:58:58;;;;;;;;;4.00;4.00;;;;;;;;5050892;28;45415;-75
2022/04/08 09:01:23;;;;;;;;;2.00;2.00;;;;;;;;5053994;28;45553;-75
2022/04/08 09:03:49;;;;;;;;;1.33;1.33;;;;;;;;5055286;28;45351;-75
2022/04/08 09:06:16;;;;;;;;;3.67;2.00;;;;;;;;5055549;28;46364;-75
2022/04/08 09:08:42;;;;;;;;;3.33;3.00;;;;;;;;5053669;28;45515;-74
2022/04/08 09:11:07;;;;;;;;;8.00;8.00;;;;;;;;5053519;28;45478;-75
2022/04/08 09:13:44;;;;;;;;;3.00;3.00;;;;;;;;5055083;28;45602;-75
2022/04/08 09:16:09;;;;;;;;;3.00;3.00;;;;;;;;5055910;28;46329;-74
2022/04/08 09:18:36;;;;;;;;;2.00;2.00;;;;;;;;5053690;28;45528;-77
2022/04/08 09:21:02;;;;;;;;;3.00;2.00;;;;;;;;5054597;28;45815;-76
2022/04/08 09:23:28;;;;;;;;;2.00;2.00;;;;;;;;5053371;28;45552;-75
2022/04/08 09:26:20;;;;;;;;;5.00;4.00;;;;;;;;5052104;28;47862;-75
2022/04/08 09:28:45;;;;;;;;;4.50;3.00;;;;;;;;5047196;28;45324;-74
2022/04/08 09:31:18;;;;;;;;;2.33;2.00;;;;;;;;5055052;28;45463;-74
2022/04/08 09:33:47;;;;;;;;;2.00;2.00;;;;;;;;5054657;28;45531;-75
2022/04/08 09:36:13;;;;;;;;;3.00;3.00;;;;;;;;5055468;28;46720;-73
2022/04/08 09:38:47;;;;;;;;;5.00;5.00;;;;;;;;5055540;28;45873;-74
2022/04/08 09:41:13;;;;;;;;;2.33;2.33;;;;;;;;5055705;28;45326;-73
2022/04/08 09:43:40;;;;;;;;;5.00;4.33;;;;;;;;5056033;28;45419;-74
2022/04/08 09:46:15;;;;;;;;;1.00;1.00;;;;;;;;5058658;28;46409;-74
2022/04/08 09:48:41;;;;;;;;;3.00;3.00;;;;;;;;5058716;28;45405;-74
2022/04/08 09:51:09;;;;;;;;;4.00;4.00;;;;;;;;5057277;28;45373;-73
2022/04/08 09:53:36;;;;;;;;;4.67;3.00;;;;;;;;5056836;28;45683;-73
2022/04/08 09:56:01;;;;;;;;;5.00;5.00;;;;;;;;5057477;28;45566;-73
2022/04/08 09:58:29;;;;;;;;;7.00;6.33;;;;;;;;5053965;28;45581;-74
2022/04/08 10:00:55;;;;;;;;;3.00;2.00;;;;;;;;5056430;28;45410;-73
2022/04/08 10:03:20;;;;;;;;;4.00;4.00;;;;;;;;5048550;27;45538;-76
2022/04/08 10:05:46;;;;;;;;;5.00;4.00;;;;;;;;5057931;28;46108;-72
2022/04/08 10:08:11;;;;;;;;;2.33;2.00;;;;;;;;5057213;28;45650;-75
2022/04/08 10:10:48;;;;;;;;;4.00;4.00;;;;;;;;5054933;28;45636;-73
2022/04/08 10:13:32;;;;;;;;;3.00;3.00;;;;;;;;5056668;28;45619;-76
2022/04/08 10:16:00;;;;;;;;;4.00;3.00;;;;;;;;5057641;28;46002;-72
2022/04/08 10:18:38;;;;;;;;;2.00;2.00;;;;;;;;5058072;28;45875;-80
2022/04/08 10:21:04;;;;;;;;;1.00;1.00;;;;;;;;5055752;28;45572;-73
2022/04/08 10:23:37;;;;;;;;;11.00;10.00;;;;;;;;5056573;28;45833;-75
2022/04/08 10:26:04;;;;;;;;;4.00;4.00;;;;;;;;5056387;28;45551;-75
2022/04/08 10:28:36;;;;;;;;;2.00;2.00;;;;;;;;5057781;28;45893;-74
2022/04/08 10:31:12;;;;;;;;;3.33;3.33;;;;;;;;5056519;28;45658;-74
2022/04/08 10:33:45;;;;;;;;;2.00;2.00;;;;;;;;5057201;28;45465;-72
2022/04/08 10:36:10;;;;;;;;;2.00;2.00;;;;;;;;5056812;28;47685;-73
2022/04/08 10:38:36;;;;;;;;;2.00;1.00;;;;;;;;5058368;28;45378;-74
2022/04/08 10:41:02;;;;;;;;;0.67;0.67;;;;;;;;5056917;28;45437;-73
2022/04/08 10:43:28;;;;;;;;;1.67;1.00;;;;;;;;5057041;28;45667;-73
2022/04/08 10:46:03;;;;;;;;;2.00;2.00;;;;;;;;5056428;28;45418;-75
2022/04/08 10:48:34;;;;;;;;;4.00;3.67;;;;;;;;5058336;28;45589;-76
2022/04/08 10:51:09;;;;;;;;;9.00;9.00;;;;;;;;5058077;28;45367;-74
2022/04/08 10:53:40;;;;;;;;;3.67;1.33;;;;;;;;5055730;28;45408;-73
2022/04/08 10:56:10;;;;;;;;;3.33;3.00;;;;;;;;5056254;28;45562;-72
2022/04/08 10:59:02;;;;;;;;;5.33;4.67;;;;;;;;5055126;28;45458;-73
2022/04/08 11:01:27;;;;;;;;;2.00;2.00;;;;;;;;5055867;28;45488;-75
2022/04/08 11:03:54;;;;;;;;;3.33;3.33;;;;;;;;5038933;28;45493;-75
2022/04/08 11:06:19;;;;;;;;;2.33;2.00;;;;;;;;5038255;28;46538;-78
2022/04/08 11:08:45;;;;;;;;;2.00;2.00;;;;;;;;5037074;28;45328;-78
2022/04/08 11:11:10;;;;;;;;;6.00;4.33;;;;;;;;5038623;28;45466;-76
2022/04/08 11:13:38;;;;;;;;;3.00;2.00;;;;;;;;5037634;28;45216;-75
2022/04/08 11:16:04;;;;;;;;;6.67;6.67;;;;;;;;5038472;28;45485;-78
2022/04/08 11:18:29;;;;;;;;;6.67;6.67;;;;;;;;5037136;28;45508;-76
2022/04/08 11:20:55;;;;;;;;;4.67;4.00;;;;;;;;5053482;28;45441;-78
2022/04/08 11:23:27;;;;;;;;;5.00;5.00;;;;;;;;5038932;28;45386;-76
2022/04/08 11:25:52;;;;;;;;;3.00;3.00;;;;;;;;5036996;28;45795;-76
2022/04/08 11:28:20;;;;;;;;;4.33;4.33;;;;;;;;5038614;28;45484;-76
2022/04/08 11:30:45;;;;;;;;;5.00;4.00;;;;;;;;5038407;28;45505;-75
2022/04/08 11:33:18;;;;;;;;;3.67;3.00;;;;;;;;5038130;28;45501;-76
2022/04/08 11:35:44;;;;;;;;;2.00;1.00;;;;;;;;5037674;28;45607;-76
2022/04/08 11:38:16;;;;;;;;;3.00;3.00;;;;;;;;5035887;28;45480;-76
2022/04/08 11:40:42;;;;;;;;;5.00;4.00;;;;;;;;5038044;28;45312;-76
2022/04/08 11:43:17;;;;;;;;;5.00;5.00;;;;;;;;5038578;28;45423;-75
2022/04/08 11:45:43;;;;;;;;;2.00;2.00;;;;;;;;5038063;28;46476;-77
2022/04/08 11:48:13;;;;;;;;;2.00;2.00;;;;;;;;5038106;28;45380;-76
2022/04/08 11:50:40;;;;;;;;;4.00;3.00;;;;;;;;5038299;28;45481;-76
2022/04/08 11:53:12;;;;;;;;;5.00;4.67;;;;;;;;5036912;28;45331;-78
2022/04/08 11:55:37;;;;;;;;;7.00;6.00;;;;;;;;5036464;28;45443;-78
2022/04/08 11:58:03;;;;;;;;;2.00;2.00;;;;;;;;5053630;28;45945;-79
2022/04/08 12:00:30;;;;;;;;;3.00;2.00;;;;;;;;5037443;28;45310;-77
2022/04/08 12:02:56;;;;;;;;;2.00;1.67;;;;;;;;5038057;28;45502;-76
2022/04/08 12:05:25;;;;;;;;;0.67;0.33;;;;;;;;5036359;28;45488;-76
2022/04/08 12:07:54;;;;;;;;;0.00;0.00;;;;;;;;5036276;28;45410;-77
2022/04/08 12:10:24;;;;;;;;;1.33;1.00;;;;;;;;5052137;28;45332;-75
2022/04/08 12:12:49;;;;;;;;;1.00;1.00;;;;;;;;5059815;28;45408;-78
2022/04/08 12:15:15;;;;;;;;;0.00;0.00;;;;;;;;5037995;28;45649;-76
2022/04/08 12:17:41;;;;;;;;;1.00;0.00;;;;;;;;5038984;28;45404;-78
2022/04/08 12:20:16;;;;;;;;;0.00;0.00;;;;;;;;5036768;28;45580;-76
2022/04/08 12:22:44;;;;;;;;;2.00;2.00;;;;;;;;5053385;28;45484;-76
2022/04/08 12:25:09;;;;;;;;;0.67;0.33;;;;;;;;5037202;28;46294;-78
2022/04/08 12:27:35;;;;;;;;;0.33;0.33;;;;;;;;5054282;28;45379;-77
2022/04/08 12:30:02;;;;;;;;;0.67;0.67;;;;;;;;5052864;28;45483;-78
2022/04/08 12:32:54;;;;;;;;;1.00;0.00;;;;;;;;5036068;28;45429;-77
2022/04/08 12:35:20;;;;;;;;;0.67;0.33;;;;;;;;5035763;28;46192;-78
2022/04/08 12:37:46;;;;;;;;;1.00;0.33;;;;;;;;5052587;28;45521;-76
2022/04/08 12:40:11;;;;;;;;;1.00;1.00;;;;;;;;5037171;28;45170;-77
2022/04/08 12:42:37;;;;;;;;;1.67;0.33;;;;;;;;5037615;28;45223;-76
2022/04/08 12:45:03;;;;;;;;;3.00;3.00;;;;;;;;5037022;28;46617;-76
2022/04/08 12:47:30;;;;;;;;;0.00;0.00;;;;;;;;5052274;28;45586;-76
2022/04/08 12:49:56;;;;;;;;;0.67;0.67;;;;;;;;5036470;28;45346;-76
2022/04/08 12:52:21;;;;;;;;;0.00;0.00;;;;;;;;5035980;28;45600;-76
2022/04/08 12:54:49;;;;;;;;;1.00;1.00;;;;;;;;5036922;28;46573;-76
2022/04/08 12:57:14;;;;;;;;;1.00;0.67;;;;;;;;5036938;28;45216;-76
2022/04/08 12:59:40;;;;;;;;;1.00;1.00;;;;;;;;5036770;28;45672;-76
2022/04/08 13:02:06;;;;;;;;;0.00;0.00;;;;;;;;5052279;28;45547;-77
2022/04/08 13:04:31;;;;;;;;;0.00;0.00;;;;;;;;5036524;28;45578;-76
2022/04/08 13:06:59;;;;;;;;;1.00;0.00;;;;;;;;5036983;28;45262;-76
2022/04/08 13:09:24;;;;;;;;;0.67;0.67;;;;;;;;5037140;28;45422;-76
2022/04/08 13:11:50;;;;;;;;;1.00;1.00;;;;;;;;5036754;28;45355;-76
2022/04/08 13:14:15;;;;;;;;;3.00;3.00;;;;;;;;5054202;28;45547;-80
2022/04/08 13:16:41;;;;;;;;;6.67;5.00;;;;;;;;5051422;28;45532;-75
2022/04/08 13:19:07;;;;;;;;;1.00;1.00;;;;;;;;5056838;28;45295;-81
2022/04/08 13:21:35;;;;;;;;;2.00;2.00;;;;;;;;5059115;28;45255;-77
2022/04/08 13:24:01;;;;;;;;;1.67;1.33;;;;;;;;5058439;28;46012;-77
2022/04/08 13:26:29;;;;;;;;;2.00;2.00;;;;;;;;5058935;28;45519;-78
2022/04/08 13:28:56;;;;;;;;;1.00;1.00;;;;;;;;5058699;28;45487;-75
2022/04/08 13:31:21;;;;;;;;;1.00;0.00;;;;;;;;5058279;28;45421;-78
2022/04/08 13:33:47;;;;;;;;;2.00;2.00;;;;;;;;5059787;28;46213;-76
2022/04/08 13:36:12;;;;;;;;;0.33;0.33;;;;;;;;5059566;28;45457;-75
2022/04/08 13:38:37;;;;;;;;;2.00;2.00;;;;;;;;5058736;28;45448;-78
2022/04/08 13:41:03;;;;;;;;;7.67;7.00;;;;;;;;5058624;28;45640;-78
2022/04/08 13:43:28;;;;;;;;;1.33;1.33;;;;;;;;5060076;28;45417;-77
2022/04/08 13:45:54;;;;;;;;;2.33;1.33;;;;;;;;5058395;28;45498;-79
2022/04/08 13:48:19;;;;;;;;;1.00;1.00;;;;;;;;5058350;28;45238;-75
2022/04/08 13:50:45;;;;;;;;;2.00;1.00;;;;;;;;5060281;28;45613;-75
2022/04/08 13:53:10;;;;;;;;;1.00;1.00;;;;;;;;5058072;28;45499;-77
2022/04/08 13:55:36;;;;;;;;;1.67;1.67;;;;;;;;5059135;28;45422;-75
2022/04/08 13:58:01;;;;;;;;;2.67;2.67;;;;;;;;5058555;28;45537;-78
2022/04/08 14:00:28;;;;;;;;;3.33;3.00;;;;;;;;5059851;28;45538;-78
2022/04/08 14:02:53;;;;;;;;;1.00;1.00;;;;;;;;5058810;28;45490;-73
2022/04/08 14:05:18;;;;;;;;;2.00;1.00;;;;;;;;5059186;28;45531;-73
2022/04/08 14:07:45;;;;;;;;;1.00;1.00;;;;;;;;5058401;28;45413;-74
2022/04/08 14:10:10;;;;;;;;;2.00;1.00;;;;;;;;5059757;28;45445;-76
2022/04/08 14:12:36;;;;;;;;;0.00;0.00;;;;;;;;5057703;28;46020;-76
2022/04/08 14:15:02;;;;;;;;;1.33;0.33;;;;;;;;5058419;28;45469;-76
2022/04/08 14:17:27;;;;;;;;;0.00;0.00;;;;;;;;5051501;28;45647;-77
2022/04/08 14:19:53;;;;;;;;;0.00;0.00;;;;;;;;5044487;28;45684;-75
2022/04/08 14:22:20;;;;;;;;;0.00;0.00;;;;;;;;5036681;28;45590;-76
2022/04/08 14:24:46;;;;;;;;;0.00;0.00;;;;;;;;5039047;28;45533;-80
2022/04/08 14:27:11;;;;;;;;;0.00;0.00;;;;;;;;5047623;28;45359;-74
2022/04/08 14:29:37;;;;;;;;;1.00;1.00;;;;;;;;5051378;28;45376;-75
2022/04/08 14:32:02;;;;;;;;;1.00;1.00;;;;;;;;5057191;28;46040;-74
2022/04/08 14:34:28;;;;;;;;;1.67;1.00;;;;;;;;5043641;28;45804;-73
2022/04/08 14:36:53;;;;;;;;;2.00;2.00;;;;;;;;5041381;28;45388;-74